sensor_id;sensor_type;location;lat;lon;timestamp;P1;durP1;ratioP1;P2;durP2;ratioP2
17850;SDS011;9051;51.548;14.348;2022-12-29T00:02:08;3.60;;;2.40;;
17850;SDS011;9051;51.548;14.348;2022-12-29T00:04:41;3.57;;;2.13;;
17850;SDS011;9051;51.548;14.348;2022-12-29T00:07:14;2.60;;;2.00;;
17850;SDS011;9051;51.548;14.348;2022-12-29T00:09:46;3.00;;;2.10;;
17850;SDS011;9051;51.548;14.348;2022-12-29T00:12:18;2.77;;;2.00;;
17850;SDS011;9051;51.548;14.348;2022-12-29T00:14:51;2.80;;;2.20;;
17850;SDS011;9051;51.548;14.348;2022-12-29T00:17:40;2.60;;;2.00;;
17850;SDS011;9051;51.548;14.348;2022-12-29T00:20:12;3.00;;;1.90;;
17850;SDS011;9051;51.548;14.348;2022-12-29T00:23:15;2.20;;;1.90;;
17850;SDS011;9051;51.548;14.348;2022-12-29T00:26:07;3.73;;;2.13;;
17850;SDS011;9051;51.548;14.348;2022-12-29T00:29:01;2.73;;;2.20;;
17850;SDS011;9051;51.548;14.348;2022-12-29T00:31:52;3.77;;;2.07;;
17850;SDS011;9051;51.548;14.348;2022-12-29T00:34:41;2.37;;;2.00;;
17850;SDS011;9051;51.548;14.348;2022-12-29T00:37:30;2.60;;;1.87;;
17850;SDS011;9051;51.548;14.348;2022-12-29T00:40:18;3.03;;;2.00;;
17850;SDS011;9051;51.548;14.348;2022-12-29T00:43:07;3.50;;;2.43;;
17850;SDS011;9051;51.548;14.348;2022-12-29T00:45:57;3.63;;;2.40;;
17850;SDS011;9051;51.548;14.348;2022-12-29T00:48:29;3.57;;;2.30;;
17850;SDS011;9051;51.548;14.348;2022-12-29T00:51:18;4.83;;;2.90;;
17850;SDS011;9051;51.548;14.348;2022-12-29T00:53:50;3.27;;;2.43;;
17850;SDS011;9051;51.548;14.348;2022-12-29T00:56:24;3.10;;;2.50;;
17850;SDS011;9051;51.548;14.348;2022-12-29T00:58:59;3.37;;;2.00;;
17850;SDS011;9051;51.548;14.348;2022-12-29T01:01:32;2.40;;;2.20;;
17850;SDS011;9051;51.548;14.348;2022-12-29T01:04:04;3.10;;;1.97;;
17850;SDS011;9051;51.548;14.348;2022-12-29T01:06:39;3.83;;;2.40;;
17850;SDS011;9051;51.548;14.348;2022-12-29T01:09:12;3.50;;;2.53;;
17850;SDS011;9051;51.548;14.348;2022-12-29T01:12:03;4.27;;;2.40;;
17850;SDS011;9051;51.548;14.348;2022-12-29T01:14:36;5.77;;;2.80;;
17850;SDS011;9051;51.548;14.348;2022-12-29T01:17:08;4.30;;;2.60;;
17850;SDS011;9051;51.548;14.348;2022-12-29T01:19:40;3.53;;;2.50;;
17850;SDS011;9051;51.548;14.348;2022-12-29T01:22:13;4.10;;;2.60;;
17850;SDS011;9051;51.548;14.348;2022-12-29T01:24:45;2.40;;;2.07;;
17850;SDS011;9051;51.548;14.348;2022-12-29T01:27:18;4.37;;;2.43;;
17850;SDS011;9051;51.548;14.348;2022-12-29T01:29:50;2.60;;;2.20;;
17850;SDS011;9051;51.548;14.348;2022-12-29T01:32:22;3.30;;;2.30;;
17850;SDS011;9051;51.548;14.348;2022-12-29T01:34:55;4.47;;;2.10;;
17850;SDS011;9051;51.548;14.348;2022-12-29T01:37:27;3.77;;;2.50;;
17850;SDS011;9051;51.548;14.348;2022-12-29T01:39:59;4.13;;;2.20;;
17850;SDS011;9051;51.548;14.348;2022-12-29T01:42:33;4.57;;;2.40;;
17850;SDS011;9051;51.548;14.348;2022-12-29T01:45:07;2.87;;;2.27;;
17850;SDS011;9051;51.548;14.348;2022-12-29T01:47:43;2.60;;;2.37;;
17850;SDS011;9051;51.548;14.348;2022-12-29T01:50:18;3.20;;;2.03;;
17850;SDS011;9051;51.548;14.348;2022-12-29T01:52:55;3.50;;;2.03;;
17850;SDS011;9051;51.548;14.348;2022-12-29T01:55:32;4.80;;;2.57;;
17850;SDS011;9051;51.548;14.348;2022-12-29T01:58:13;3.53;;;2.13;;
17850;SDS011;9051;51.548;14.348;2022-12-29T02:00:48;2.97;;;2.30;;
17850;SDS011;9051;51.548;14.348;2022-12-29T02:03:20;3.27;;;2.53;;
17850;SDS011;9051;51.548;14.348;2022-12-29T02:05:54;3.43;;;2.00;;
17850;SDS011;9051;51.548;14.348;2022-12-29T02:08:31;4.00;;;2.20;;
17850;SDS011;9051;51.548;14.348;2022-12-29T02:11:03;1.90;;;1.70;;
17850;SDS011;9051;51.548;14.348;2022-12-29T02:13:39;2.87;;;2.03;;
17850;SDS011;9051;51.548;14.348;2022-12-29T02:16:14;2.47;;;1.80;;
17850;SDS011;9051;51.548;14.348;2022-12-29T02:19:03;2.53;;;1.83;;
17850;SDS011;9051;51.548;14.348;2022-12-29T02:21:56;2.70;;;2.20;;
17850;SDS011;9051;51.548;14.348;2022-12-29T02:24:41;4.07;;;1.93;;
17850;SDS011;9051;51.548;14.348;2022-12-29T02:27:36;2.50;;;1.80;;
17850;SDS011;9051;51.548;14.348;2022-12-29T02:30:37;3.33;;;1.77;;
17850;SDS011;9051;51.548;14.348;2022-12-29T02:33:20;2.37;;;2.00;;
17850;SDS011;9051;51.548;14.348;2022-12-29T02:36:20;2.70;;;1.90;;
17850;SDS011;9051;51.548;14.348;2022-12-29T02:39:02;1.90;;;1.70;;
17850;SDS011;9051;51.548;14.348;2022-12-29T02:41:46;2.87;;;1.90;;
17850;SDS011;9051;51.548;14.348;2022-12-29T02:44:31;2.03;;;1.83;;
17850;SDS011;9051;51.548;14.348;2022-12-29T02:47:09;1.97;;;1.70;;
17850;SDS011;9051;51.548;14.348;2022-12-29T02:49:48;4.13;;;2.00;;
17850;SDS011;9051;51.548;14.348;2022-12-29T02:52:25;2.23;;;1.60;;
17850;SDS011;9051;51.548;14.348;2022-12-29T02:54:59;2.67;;;1.67;;
17850;SDS011;9051;51.548;14.348;2022-12-29T02:57:32;3.93;;;1.70;;
17850;SDS011;9051;51.548;14.348;2022-12-29T03:00:21;2.00;;;1.50;;
17850;SDS011;9051;51.548;14.348;2022-12-29T03:03:03;2.40;;;1.67;;
17850;SDS011;9051;51.548;14.348;2022-12-29T03:08:48;2.10;;;1.80;;
17850;SDS011;9051;51.548;14.348;2022-12-29T03:11:26;2.20;;;1.47;;
17850;SDS011;9051;51.548;14.348;2022-12-29T03:14:24;3.00;;;1.70;;
17850;SDS011;9051;51.548;14.348;2022-12-29T03:17:19;1.83;;;1.70;;
17850;SDS011;9051;51.548;14.348;2022-12-29T03:20:04;2.00;;;1.60;;
17850;SDS011;9051;51.548;14.348;2022-12-29T03:22:43;2.30;;;1.73;;
17850;SDS011;9051;51.548;14.348;2022-12-29T03:25:25;2.33;;;1.67;;
17850;SDS011;9051;51.548;14.348;2022-12-29T03:28:06;2.83;;;1.80;;
17850;SDS011;9051;51.548;14.348;2022-12-29T03:30:46;2.27;;;1.60;;
17850;SDS011;9051;51.548;14.348;2022-12-29T03:33:23;3.70;;;1.73;;
17850;SDS011;9051;51.548;14.348;2022-12-29T03:36:05;2.47;;;1.90;;
17850;SDS011;9051;51.548;14.348;2022-12-29T03:38:44;1.80;;;1.70;;
17850;SDS011;9051;51.548;14.348;2022-12-29T03:41:24;1.97;;;1.43;;
17850;SDS011;9051;51.548;14.348;2022-12-29T03:44:01;1.83;;;1.70;;
17850;SDS011;9051;51.548;14.348;2022-12-29T03:46:37;3.97;;;1.70;;
17850;SDS011;9051;51.548;14.348;2022-12-29T03:49:11;2.30;;;1.60;;
17850;SDS011;9051;51.548;14.348;2022-12-29T03:51:45;1.70;;;1.60;;
17850;SDS011;9051;51.548;14.348;2022-12-29T03:54:17;2.30;;;1.67;;
17850;SDS011;9051;51.548;14.348;2022-12-29T03:56:49;2.13;;;1.70;;
17850;SDS011;9051;51.548;14.348;2022-12-29T03:59:31;2.03;;;1.53;;
17850;SDS011;9051;51.548;14.348;2022-12-29T04:02:04;2.13;;;1.73;;
17850;SDS011;9051;51.548;14.348;2022-12-29T04:04:38;3.83;;;1.80;;
17850;SDS011;9051;51.548;14.348;2022-12-29T04:07:13;1.90;;;1.60;;
17850;SDS011;9051;51.548;14.348;2022-12-29T04:09:46;2.80;;;1.90;;
17850;SDS011;9051;51.548;14.348;2022-12-29T04:12:24;3.87;;;1.63;;
17850;SDS011;9051;51.548;14.348;2022-12-29T04:14:56;1.67;;;1.57;;
17850;SDS011;9051;51.548;14.348;2022-12-29T04:17:28;2.33;;;1.67;;
17850;SDS011;9051;51.548;14.348;2022-12-29T04:20:01;3.03;;;1.70;;
17850;SDS011;9051;51.548;14.348;2022-12-29T04:22:49;2.57;;;1.60;;
17850;SDS011;9051;51.548;14.348;2022-12-29T04:25:30;3.23;;;1.83;;
17850;SDS011;9051;51.548;14.348;2022-12-29T04:28:03;2.73;;;1.67;;
17850;SDS011;9051;51.548;14.348;2022-12-29T04:30:48;2.43;;;1.80;;
17850;SDS011;9051;51.548;14.348;2022-12-29T04:33:28;2.00;;;1.77;;
17850;SDS011;9051;51.548;14.348;2022-12-29T04:36:02;1.90;;;1.73;;
17850;SDS011;9051;51.548;14.348;2022-12-29T04:38:36;1.63;;;1.53;;
17850;SDS011;9051;51.548;14.348;2022-12-29T04:41:09;4.43;;;1.93;;
17850;SDS011;9051;51.548;14.348;2022-12-29T04:43:43;1.70;;;1.57;;
17850;SDS011;9051;51.548;14.348;2022-12-29T04:49:42;2.77;;;1.67;;
17850;SDS011;9051;51.548;14.348;2022-12-29T04:52:32;2.70;;;1.80;;
17850;SDS011;9051;51.548;14.348;2022-12-29T04:55:08;2.67;;;1.93;;
17850;SDS011;9051;51.548;14.348;2022-12-29T04:57:40;2.17;;;1.97;;
17850;SDS011;9051;51.548;14.348;2022-12-29T05:00:17;2.23;;;1.73;;
17850;SDS011;9051;51.548;14.348;2022-12-29T05:02:51;2.00;;;1.80;;
17850;SDS011;9051;51.548;14.348;2022-12-29T05:05:23;2.30;;;1.60;;
17850;SDS011;9051;51.548;14.348;2022-12-29T05:07:56;2.10;;;1.80;;
17850;SDS011;9051;51.548;14.348;2022-12-29T05:10:30;1.87;;;1.63;;
17850;SDS011;9051;51.548;14.348;2022-12-29T05:13:06;2.10;;;1.70;;
17850;SDS011;9051;51.548;14.348;2022-12-29T05:15:39;2.43;;;1.83;;
17850;SDS011;9051;51.548;14.348;2022-12-29T05:18:11;3.17;;;2.00;;
17850;SDS011;9051;51.548;14.348;2022-12-29T05:20:43;2.03;;;1.83;;
17850;SDS011;9051;51.548;14.348;2022-12-29T05:23:16;2.83;;;1.77;;
17850;SDS011;9051;51.548;14.348;2022-12-29T05:25:54;2.70;;;1.90;;
17850;SDS011;9051;51.548;14.348;2022-12-29T05:28:37;2.53;;;2.13;;
17850;SDS011;9051;51.548;14.348;2022-12-29T05:31:16;2.97;;;2.00;;
17850;SDS011;9051;51.548;14.348;2022-12-29T05:33:48;2.77;;;1.87;;
17850;SDS011;9051;51.548;14.348;2022-12-29T05:36:21;2.40;;;1.80;;
17850;SDS011;9051;51.548;14.348;2022-12-29T05:38:57;2.73;;;2.00;;
17850;SDS011;9051;51.548;14.348;2022-12-29T05:41:31;3.13;;;2.23;;
17850;SDS011;9051;51.548;14.348;2022-12-29T05:44:26;3.90;;;2.50;;
17850;SDS011;9051;51.548;14.348;2022-12-29T05:47:30;2.30;;;2.10;;
17850;SDS011;9051;51.548;14.348;2022-12-29T05:50:19;2.83;;;2.13;;
17850;SDS011;9051;51.548;14.348;2022-12-29T05:53:12;2.40;;;2.07;;
17850;SDS011;9051;51.548;14.348;2022-12-29T05:55:46;2.63;;;2.10;;
17850;SDS011;9051;51.548;14.348;2022-12-29T05:58:20;2.53;;;2.03;;
17850;SDS011;9051;51.548;14.348;2022-12-29T06:00:53;2.07;;;1.90;;
17850;SDS011;9051;51.548;14.348;2022-12-29T06:03:26;2.63;;;1.90;;
17850;SDS011;9051;51.548;14.348;2022-12-29T06:06:00;2.23;;;2.03;;
17850;SDS011;9051;51.548;14.348;2022-12-29T06:08:33;2.93;;;1.90;;
17850;SDS011;9051;51.548;14.348;2022-12-29T06:11:05;3.53;;;2.23;;
17850;SDS011;9051;51.548;14.348;2022-12-29T06:13:39;3.33;;;2.30;;
17850;SDS011;9051;51.548;14.348;2022-12-29T06:16:11;2.43;;;1.83;;
17850;SDS011;9051;51.548;14.348;2022-12-29T06:18:43;5.13;;;1.97;;
17850;SDS011;9051;51.548;14.348;2022-12-29T06:21:16;4.40;;;2.10;;
17850;SDS011;9051;51.548;14.348;2022-12-29T06:23:49;8.03;;;2.40;;
17850;SDS011;9051;51.548;14.348;2022-12-29T06:26:22;3.33;;;2.20;;
17850;SDS011;9051;51.548;14.348;2022-12-29T06:28:58;3.73;;;2.00;;
17850;SDS011;9051;51.548;14.348;2022-12-29T06:31:31;4.80;;;2.43;;
17850;SDS011;9051;51.548;14.348;2022-12-29T06:34:04;3.17;;;2.13;;
17850;SDS011;9051;51.548;14.348;2022-12-29T06:36:36;2.87;;;2.23;;
17850;SDS011;9051;51.548;14.348;2022-12-29T06:39:09;3.47;;;2.00;;
17850;SDS011;9051;51.548;14.348;2022-12-29T06:41:41;3.73;;;2.10;;
17850;SDS011;9051;51.548;14.348;2022-12-29T06:44:38;3.27;;;2.03;;
17850;SDS011;9051;51.548;14.348;2022-12-29T06:47:13;3.93;;;2.30;;
17850;SDS011;9051;51.548;14.348;2022-12-29T06:49:45;2.63;;;2.10;;
17850;SDS011;9051;51.548;14.348;2022-12-29T06:52:17;2.77;;;2.27;;
17850;SDS011;9051;51.548;14.348;2022-12-29T06:54:49;4.30;;;2.40;;
17850;SDS011;9051;51.548;14.348;2022-12-29T06:57:21;3.47;;;2.33;;
17850;SDS011;9051;51.548;14.348;2022-12-29T06:59:55;3.00;;;2.27;;
17850;SDS011;9051;51.548;14.348;2022-12-29T07:02:27;4.93;;;2.20;;
17850;SDS011;9051;51.548;14.348;2022-12-29T07:04:59;4.03;;;2.13;;
17850;SDS011;9051;51.548;14.348;2022-12-29T07:07:31;2.60;;;1.80;;
17850;SDS011;9051;51.548;14.348;2022-12-29T07:10:03;4.27;;;2.20;;
17850;SDS011;9051;51.548;14.348;2022-12-29T07:12:35;3.40;;;2.07;;
17850;SDS011;9051;51.548;14.348;2022-12-29T07:15:10;3.57;;;2.40;;
17850;SDS011;9051;51.548;14.348;2022-12-29T07:17:42;3.50;;;2.33;;
17850;SDS011;9051;51.548;14.348;2022-12-29T07:20:14;4.10;;;2.10;;
17850;SDS011;9051;51.548;14.348;2022-12-29T07:22:46;3.33;;;1.97;;
17850;SDS011;9051;51.548;14.348;2022-12-29T07:25:18;2.60;;;2.00;;
17850;SDS011;9051;51.548;14.348;2022-12-29T07:27:50;3.80;;;2.17;;
17850;SDS011;9051;51.548;14.348;2022-12-29T07:30:23;3.77;;;2.40;;
17850;SDS011;9051;51.548;14.348;2022-12-29T07:32:55;2.80;;;2.20;;
17850;SDS011;9051;51.548;14.348;2022-12-29T07:35:28;3.10;;;2.00;;
17850;SDS011;9051;51.548;14.348;2022-12-29T07:38:00;3.43;;;2.23;;
17850;SDS011;9051;51.548;14.348;2022-12-29T07:40:33;3.97;;;2.40;;
17850;SDS011;9051;51.548;14.348;2022-12-29T07:43:05;2.83;;;1.93;;
17850;SDS011;9051;51.548;14.348;2022-12-29T07:45:44;2.53;;;2.00;;
17850;SDS011;9051;51.548;14.348;2022-12-29T07:48:16;2.80;;;2.03;;
17850;SDS011;9051;51.548;14.348;2022-12-29T07:50:48;3.67;;;2.17;;
17850;SDS011;9051;51.548;14.348;2022-12-29T07:53:21;4.20;;;2.27;;
17850;SDS011;9051;51.548;14.348;2022-12-29T07:55:53;2.70;;;2.20;;
17850;SDS011;9051;51.548;14.348;2022-12-29T07:58:25;3.23;;;2.20;;
17850;SDS011;9051;51.548;14.348;2022-12-29T08:00:59;3.43;;;2.10;;
17850;SDS011;9051;51.548;14.348;2022-12-29T08:03:31;2.87;;;2.17;;
17850;SDS011;9051;51.548;14.348;2022-12-29T08:06:03;3.73;;;1.97;;
17850;SDS011;9051;51.548;14.348;2022-12-29T08:08:35;2.27;;;1.97;;
17850;SDS011;9051;51.548;14.348;2022-12-29T08:11:07;2.77;;;2.00;;
17850;SDS011;9051;51.548;14.348;2022-12-29T08:13:40;3.77;;;2.03;;
17850;SDS011;9051;51.548;14.348;2022-12-29T08:16:14;3.40;;;1.90;;
17850;SDS011;9051;51.548;14.348;2022-12-29T08:18:46;3.23;;;1.87;;
17850;SDS011;9051;51.548;14.348;2022-12-29T08:21:18;3.27;;;2.20;;
17850;SDS011;9051;51.548;14.348;2022-12-29T08:23:50;3.67;;;2.23;;
17850;SDS011;9051;51.548;14.348;2022-12-29T08:26:22;2.53;;;1.90;;
17850;SDS011;9051;51.548;14.348;2022-12-29T08:28:54;3.13;;;2.00;;
17850;SDS011;9051;51.548;14.348;2022-12-29T08:31:28;3.23;;;1.83;;
17850;SDS011;9051;51.548;14.348;2022-12-29T08:34:00;2.13;;;1.77;;
17850;SDS011;9051;51.548;14.348;2022-12-29T08:36:33;2.10;;;1.77;;
17850;SDS011;9051;51.548;14.348;2022-12-29T08:39:05;2.90;;;1.97;;
17850;SDS011;9051;51.548;14.348;2022-12-29T08:41:37;4.83;;;1.97;;
17850;SDS011;9051;51.548;14.348;2022-12-29T08:44:09;2.50;;;1.80;;
17850;SDS011;9051;51.548;14.348;2022-12-29T08:46:43;2.83;;;1.90;;
17850;SDS011;9051;51.548;14.348;2022-12-29T08:49:16;2.00;;;1.80;;
17850;SDS011;9051;51.548;14.348;2022-12-29T08:51:50;2.80;;;1.60;;
17850;SDS011;9051;51.548;14.348;2022-12-29T08:54:22;3.67;;;2.00;;
17850;SDS011;9051;51.548;14.348;2022-12-29T08:56:54;2.40;;;1.60;;
17850;SDS011;9051;51.548;14.348;2022-12-29T08:59:33;2.00;;;1.80;;
17850;SDS011;9051;51.548;14.348;2022-12-29T09:02:09;2.33;;;2.13;;
17850;SDS011;9051;51.548;14.348;2022-12-29T09:04:42;4.07;;;1.90;;
17850;SDS011;9051;51.548;14.348;2022-12-29T09:07:15;3.20;;;2.00;;
17850;SDS011;9051;51.548;14.348;2022-12-29T09:09:48;2.93;;;1.90;;
17850;SDS011;9051;51.548;14.348;2022-12-29T09:12:20;3.53;;;2.00;;
17850;SDS011;9051;51.548;14.348;2022-12-29T09:14:53;3.03;;;2.10;;
17850;SDS011;9051;51.548;14.348;2022-12-29T09:17:27;2.30;;;1.97;;
17850;SDS011;9051;51.548;14.348;2022-12-29T09:20:16;2.33;;;2.00;;
17850;SDS011;9051;51.548;14.348;2022-12-29T09:22:49;3.47;;;2.00;;
17850;SDS011;9051;51.548;14.348;2022-12-29T09:25:21;2.10;;;1.87;;
17850;SDS011;9051;51.548;14.348;2022-12-29T09:27:54;2.50;;;1.97;;
17850;SDS011;9051;51.548;14.348;2022-12-29T09:30:26;2.73;;;2.00;;
17850;SDS011;9051;51.548;14.348;2022-12-29T09:33:02;2.90;;;2.00;;
17850;SDS011;9051;51.548;14.348;2022-12-29T09:35:34;2.67;;;1.90;;
17850;SDS011;9051;51.548;14.348;2022-12-29T09:38:07;2.67;;;1.90;;
17850;SDS011;9051;51.548;14.348;2022-12-29T09:40:39;2.57;;;1.63;;
17850;SDS011;9051;51.548;14.348;2022-12-29T09:43:19;2.70;;;1.70;;
17850;SDS011;9051;51.548;14.348;2022-12-29T09:46:03;3.03;;;2.10;;
17850;SDS011;9051;51.548;14.348;2022-12-29T09:48:51;4.03;;;2.40;;
17850;SDS011;9051;51.548;14.348;2022-12-29T09:51:38;2.30;;;1.90;;
17850;SDS011;9051;51.548;14.348;2022-12-29T09:54:19;2.90;;;1.83;;
17850;SDS011;9051;51.548;14.348;2022-12-29T09:56:55;1.93;;;1.63;;
17850;SDS011;9051;51.548;14.348;2022-12-29T09:59:31;2.87;;;2.00;;
17850;SDS011;9051;51.548;14.348;2022-12-29T10:02:13;3.03;;;1.97;;
17850;SDS011;9051;51.548;14.348;2022-12-29T10:04:56;1.60;;;1.50;;
17850;SDS011;9051;51.548;14.348;2022-12-29T10:07:34;2.90;;;1.90;;
17850;SDS011;9051;51.548;14.348;2022-12-29T10:10:16;2.00;;;1.63;;
17850;SDS011;9051;51.548;14.348;2022-12-29T10:13:06;2.90;;;1.90;;
17850;SDS011;9051;51.548;14.348;2022-12-29T10:15:53;2.47;;;1.80;;
17850;SDS011;9051;51.548;14.348;2022-12-29T10:18:38;3.83;;;2.03;;
17850;SDS011;9051;51.548;14.348;2022-12-29T10:21:30;2.30;;;1.90;;
17850;SDS011;9051;51.548;14.348;2022-12-29T10:24:12;2.33;;;1.67;;
17850;SDS011;9051;51.548;14.348;2022-12-29T10:26:44;2.73;;;1.80;;
17850;SDS011;9051;51.548;14.348;2022-12-29T10:29:19;1.97;;;1.50;;
17850;SDS011;9051;51.548;14.348;2022-12-29T10:31:54;2.33;;;2.00;;
17850;SDS011;9051;51.548;14.348;2022-12-29T10:34:31;2.30;;;1.90;;
17850;SDS011;9051;51.548;14.348;2022-12-29T10:37:11;2.53;;;2.07;;
17850;SDS011;9051;51.548;14.348;2022-12-29T10:39:52;2.80;;;2.20;;
17850;SDS011;9051;51.548;14.348;2022-12-29T10:42:26;4.17;;;2.60;;
17850;SDS011;9051;51.548;14.348;2022-12-29T10:45:00;4.57;;;3.00;;
17850;SDS011;9051;51.548;14.348;2022-12-29T10:47:33;3.27;;;2.07;;
17850;SDS011;9051;51.548;14.348;2022-12-29T10:50:11;2.93;;;2.00;;
17850;SDS011;9051;51.548;14.348;2022-12-29T10:52:45;2.80;;;1.50;;
17850;SDS011;9051;51.548;14.348;2022-12-29T10:55:21;2.43;;;1.60;;
17850;SDS011;9051;51.548;14.348;2022-12-29T10:57:59;3.70;;;1.67;;
17850;SDS011;9051;51.548;14.348;2022-12-29T11:00:35;2.37;;;1.47;;
17850;SDS011;9051;51.548;14.348;2022-12-29T11:06:13;3.77;;;1.40;;
17850;SDS011;9051;51.548;14.348;2022-12-29T11:08:54;2.60;;;1.70;;
17850;SDS011;9051;51.548;14.348;2022-12-29T11:11:33;2.40;;;1.63;;
17850;SDS011;9051;51.548;14.348;2022-12-29T11:14:10;2.93;;;1.43;;
17850;SDS011;9051;51.548;14.348;2022-12-29T11:16:43;1.83;;;1.40;;
17850;SDS011;9051;51.548;14.348;2022-12-29T11:19:20;1.40;;;1.30;;
17850;SDS011;9051;51.548;14.348;2022-12-29T11:21:53;2.37;;;1.53;;
17850;SDS011;9051;51.548;14.348;2022-12-29T11:24:28;2.23;;;1.20;;
17850;SDS011;9051;51.548;14.348;2022-12-29T11:27:10;2.77;;;2.00;;
17850;SDS011;9051;51.548;14.348;2022-12-29T11:29:46;3.00;;;1.73;;
17850;SDS011;9051;51.548;14.348;2022-12-29T11:32:20;1.80;;;1.70;;
17850;SDS011;9051;51.548;14.348;2022-12-29T11:34:53;2.73;;;1.93;;
17850;SDS011;9051;51.548;14.348;2022-12-29T11:37:27;2.80;;;1.57;;
17850;SDS011;9051;51.548;14.348;2022-12-29T11:40:03;2.90;;;1.70;;
17850;SDS011;9051;51.548;14.348;2022-12-29T11:42:39;1.83;;;1.60;;
17850;SDS011;9051;51.548;14.348;2022-12-29T11:45:18;3.33;;;1.50;;
17850;SDS011;9051;51.548;14.348;2022-12-29T11:47:54;3.13;;;1.60;;
17850;SDS011;9051;51.548;14.348;2022-12-29T11:50:28;2.47;;;1.33;;
17850;SDS011;9051;51.548;14.348;2022-12-29T11:53:03;1.70;;;1.60;;
17850;SDS011;9051;51.548;14.348;2022-12-29T11:55:39;2.03;;;1.47;;
17850;SDS011;9051;51.548;14.348;2022-12-29T11:58:12;1.60;;;1.50;;
17850;SDS011;9051;51.548;14.348;2022-12-29T12:00:47;2.63;;;1.60;;
17850;SDS011;9051;51.548;14.348;2022-12-29T12:03:22;2.17;;;1.30;;
17850;SDS011;9051;51.548;14.348;2022-12-29T12:05:57;2.03;;;1.43;;
17850;SDS011;9051;51.548;14.348;2022-12-29T12:08:33;3.43;;;1.57;;
17850;SDS011;9051;51.548;14.348;2022-12-29T12:11:12;1.30;;;1.20;;
17850;SDS011;9051;51.548;14.348;2022-12-29T12:13:47;2.93;;;1.70;;
17850;SDS011;9051;51.548;14.348;2022-12-29T12:16:32;1.97;;;1.47;;
17850;SDS011;9051;51.548;14.348;2022-12-29T12:19:12;1.67;;;1.50;;
17850;SDS011;9051;51.548;14.348;2022-12-29T12:21:51;2.30;;;1.53;;
17850;SDS011;9051;51.548;14.348;2022-12-29T12:24:37;2.93;;;1.60;;
17850;SDS011;9051;51.548;14.348;2022-12-29T12:27:15;2.17;;;1.77;;
17850;SDS011;9051;51.548;14.348;2022-12-29T12:29:56;1.97;;;1.60;;
17850;SDS011;9051;51.548;14.348;2022-12-29T12:32:34;2.50;;;1.60;;
17850;SDS011;9051;51.548;14.348;2022-12-29T12:35:14;2.60;;;1.70;;
17850;SDS011;9051;51.548;14.348;2022-12-29T13:00:15;2.07;;;1.40;;
17850;SDS011;9051;51.548;14.348;2022-12-29T13:02:53;2.70;;;1.70;;
17850;SDS011;9051;51.548;14.348;2022-12-29T13:08:46;1.63;;;1.53;;
17850;SDS011;9051;51.548;14.348;2022-12-29T13:11:32;2.73;;;1.60;;
17850;SDS011;9051;51.548;14.348;2022-12-29T13:14:15;1.77;;;1.60;;
17850;SDS011;9051;51.548;14.348;2022-12-29T13:16:59;2.13;;;1.40;;
17850;SDS011;9051;51.548;14.348;2022-12-29T13:19:40;1.57;;;1.40;;
17850;SDS011;9051;51.548;14.348;2022-12-29T13:22:18;2.83;;;1.60;;
17850;SDS011;9051;51.548;14.348;2022-12-29T13:25:00;2.20;;;1.70;;
17850;SDS011;9051;51.548;14.348;2022-12-29T13:27:51;1.37;;;1.27;;
17850;SDS011;9051;51.548;14.348;2022-12-29T13:30:28;2.47;;;1.53;;
17850;SDS011;9051;51.548;14.348;2022-12-29T13:33:06;1.60;;;1.37;;
17850;SDS011;9051;51.548;14.348;2022-12-29T13:35:52;2.27;;;1.40;;
17850;SDS011;9051;51.548;14.348;2022-12-29T13:38:30;2.83;;;1.47;;
17850;SDS011;9051;51.548;14.348;2022-12-29T13:41:07;1.33;;;1.23;;
17850;SDS011;9051;51.548;14.348;2022-12-29T13:43:42;1.77;;;1.23;;
17850;SDS011;9051;51.548;14.348;2022-12-29T13:46:18;1.97;;;1.50;;
17850;SDS011;9051;51.548;14.348;2022-12-29T13:48:56;1.57;;;1.27;;
17850;SDS011;9051;51.548;14.348;2022-12-29T13:51:31;1.40;;;1.30;;
17850;SDS011;9051;51.548;14.348;2022-12-29T13:54:07;3.37;;;1.43;;
17850;SDS011;9051;51.548;14.348;2022-12-29T13:56:49;2.07;;;1.47;;
17850;SDS011;9051;51.548;14.348;2022-12-29T13:59:27;2.87;;;1.47;;
17850;SDS011;9051;51.548;14.348;2022-12-29T14:02:15;3.40;;;1.70;;
17850;SDS011;9051;51.548;14.348;2022-12-29T14:04:58;1.47;;;1.37;;
17850;SDS011;9051;51.548;14.348;2022-12-29T14:07:35;3.97;;;1.40;;
17850;SDS011;9051;51.548;14.348;2022-12-29T14:10:13;2.53;;;1.50;;
17850;SDS011;9051;51.548;14.348;2022-12-29T14:13:00;1.40;;;1.30;;
17850;SDS011;9051;51.548;14.348;2022-12-29T14:15:37;2.43;;;1.40;;
17850;SDS011;9051;51.548;14.348;2022-12-29T14:18:12;1.90;;;1.10;;
17850;SDS011;9051;51.548;14.348;2022-12-29T14:20:53;2.07;;;1.50;;
17850;SDS011;9051;51.548;14.348;2022-12-29T14:23:28;1.30;;;1.20;;
17850;SDS011;9051;51.548;14.348;2022-12-29T14:26:11;2.33;;;1.33;;
17850;SDS011;9051;51.548;14.348;2022-12-29T14:28:46;2.67;;;1.40;;
17850;SDS011;9051;51.548;14.348;2022-12-29T14:34:16;1.67;;;1.40;;
17850;SDS011;9051;51.548;14.348;2022-12-29T14:37:02;2.37;;;1.27;;
17850;SDS011;9051;51.548;14.348;2022-12-29T14:39:36;2.77;;;1.43;;
17850;SDS011;9051;51.548;14.348;2022-12-29T14:42:11;2.03;;;1.50;;
17850;SDS011;9051;51.548;14.348;2022-12-29T14:44:47;1.60;;;1.40;;
17850;SDS011;9051;51.548;14.348;2022-12-29T14:47:22;1.63;;;1.30;;
17850;SDS011;9051;51.548;14.348;2022-12-29T14:50:03;4.07;;;1.57;;
17850;SDS011;9051;51.548;14.348;2022-12-29T14:52:42;1.57;;;1.33;;
17850;SDS011;9051;51.548;14.348;2022-12-29T14:55:32;1.60;;;1.50;;
17850;SDS011;9051;51.548;14.348;2022-12-29T14:58:12;1.77;;;1.60;;
17850;SDS011;9051;51.548;14.348;2022-12-29T15:00:48;2.00;;;1.80;;
17850;SDS011;9051;51.548;14.348;2022-12-29T15:03:22;2.10;;;1.50;;
17850;SDS011;9051;51.548;14.348;2022-12-29T15:05:56;2.43;;;1.60;;
17850;SDS011;9051;51.548;14.348;2022-12-29T15:08:32;2.63;;;1.87;;
17850;SDS011;9051;51.548;14.348;2022-12-29T15:11:09;1.63;;;1.53;;
17850;SDS011;9051;51.548;14.348;2022-12-29T15:13:45;1.50;;;1.40;;
17850;SDS011;9051;51.548;14.348;2022-12-29T15:16:22;1.93;;;1.33;;
17850;SDS011;9051;51.548;14.348;2022-12-29T15:18:56;2.13;;;1.43;;
17850;SDS011;9051;51.548;14.348;2022-12-29T15:21:29;1.30;;;1.20;;
17850;SDS011;9051;51.548;14.348;2022-12-29T15:24:04;1.87;;;1.50;;
17850;SDS011;9051;51.548;14.348;2022-12-29T15:26:37;1.60;;;1.50;;
17850;SDS011;9051;51.548;14.348;2022-12-29T15:32:15;2.63;;;1.80;;
17850;SDS011;9051;51.548;14.348;2022-12-29T15:34:50;2.90;;;1.40;;
17850;SDS011;9051;51.548;14.348;2022-12-29T15:37:23;1.93;;;1.40;;
17850;SDS011;9051;51.548;14.348;2022-12-29T15:39:58;1.30;;;1.20;;
17850;SDS011;9051;51.548;14.348;2022-12-29T15:42:43;2.47;;;1.50;;
17850;SDS011;9051;51.548;14.348;2022-12-29T15:45:23;2.23;;;1.60;;
17850;SDS011;9051;51.548;14.348;2022-12-29T15:48:00;2.30;;;1.70;;
17850;SDS011;9051;51.548;14.348;2022-12-29T15:50:32;1.87;;;1.53;;
17850;SDS011;9051;51.548;14.348;2022-12-29T15:53:09;2.40;;;1.67;;
17850;SDS011;9051;51.548;14.348;2022-12-29T15:55:43;2.00;;;1.60;;
17850;SDS011;9051;51.548;14.348;2022-12-29T15:58:18;1.80;;;1.60;;
17850;SDS011;9051;51.548;14.348;2022-12-29T16:00:52;2.33;;;1.83;;
17850;SDS011;9051;51.548;14.348;2022-12-29T16:03:30;2.47;;;1.60;;
17850;SDS011;9051;51.548;14.348;2022-12-29T16:06:09;1.93;;;1.80;;
17850;SDS011;9051;51.548;14.348;2022-12-29T16:08:42;2.57;;;1.67;;
17850;SDS011;9051;51.548;14.348;2022-12-29T16:11:20;2.27;;;1.43;;
17850;SDS011;9051;51.548;14.348;2022-12-29T16:13:58;2.20;;;1.63;;
17850;SDS011;9051;51.548;14.348;2022-12-29T16:16:31;2.93;;;1.70;;
17850;SDS011;9051;51.548;14.348;2022-12-29T16:19:09;2.17;;;1.97;;
17850;SDS011;9051;51.548;14.348;2022-12-29T16:21:45;2.37;;;1.80;;
17850;SDS011;9051;51.548;14.348;2022-12-29T16:24:17;2.57;;;1.57;;
17850;SDS011;9051;51.548;14.348;2022-12-29T16:26:53;1.97;;;1.60;;
17850;SDS011;9051;51.548;14.348;2022-12-29T16:29:52;2.03;;;1.77;;